Time;durP1;ratioP1;P1;durP2;ratioP2;P2;SDS_P1;SDS_P2;PMS_P1;PMS_P2;Temp;Humidity;BMP_temperature;BMP_pressure;BME280_temperature;BME280_humidity;BME280_pressure;Samples;Min_cycle;Max_cycle;Signal;HPM_P1;HPM_P2
2022/01/09 00:02:06;;;;;;;7.35;6.30;;;;;;;3.68;100.00;98709.22;10459439;28;20045;-56
2022/01/09 00:07:08;;;;;;;4.95;4.45;;;;;;;3.85;100.00;98713.31;10460032;28;20060;-55
2022/01/09 00:12:11;;;;;;;5.07;4.68;;;;;;;3.95;100.00;98717.91;10458128;28;20053;-56
2022/01/09 00:17:14;;;;;;;8.38;7.53;;;;;;;3.92;100.00;98729.31;10459428;28;20082;-57
2022/01/09 00:22:21;;;;;;;6.13;5.18;;;;;;;3.95;100.00;98734.28;10458593;28;20095;-54
2022/01/09 00:27:23;;;;;;;6.53;5.93;;;;;;;3.98;100.00;98741.03;10457417;28;20045;-58
2022/01/09 00:32:25;;;;;;;7.43;6.72;;;;;;;4.06;100.00;98743.97;10458500;28;20052;-59
2022/01/09 00:37:28;;;;;;;7.07;6.38;;;;;;;3.94;100.00;98758.50;10458257;28;20049;-57
2022/01/09 00:42:30;;;;;;;9.93;7.50;;;;;;;4.16;100.00;98759.75;10458565;28;20052;-56
2022/01/09 00:47:33;;;;;;;4.20;3.90;;;;;;;4.22;100.00;98767.97;10456354;28;20057;-58
2022/01/09 00:52:35;;;;;;;6.10;5.53;;;;;;;4.41;100.00;98771.97;10458182;28;20049;-56
2022/01/09 00:57:37;;;;;;;4.90;4.55;;;;;;;4.50;100.00;98766.19;10457372;28;20416;-57
2022/01/09 01:02:40;;;;;;;5.78;5.28;;;;;;;4.44;100.00;98789.91;10457102;28;20049;-57
2022/01/09 01:07:42;;;;;;;9.20;6.97;;;;;;;4.41;100.00;98801.28;10457281;28;20052;-58
2022/01/09 01:12:45;;;;;;;7.97;7.25;;;;;;;4.41;100.00;98814.25;10457088;28;20045;-57
2022/01/09 01:17:48;;;;;;;7.00;6.47;;;;;;;4.41;100.00;98818.63;10455730;28;20041;-55
2022/01/09 01:22:52;;;;;;;6.32;5.82;;;;;;;4.46;100.00;98819.97;10455665;28;20135;-56
2022/01/09 01:27:54;;;;;;;5.55;5.00;;;;;;;4.45;100.00;98841.66;10456556;28;20482;-57
2022/01/09 01:32:57;;;;;;;5.80;3.33;;;;;;;4.46;100.00;98860.63;10456582;28;20056;-53
2022/01/09 01:37:59;;;;;;;5.88;3.20;;;;;;;4.54;100.00;98863.56;10457502;28;20049;-58
2022/01/09 01:43:02;;;;;;;7.10;2.58;;;;;;;4.54;100.00;98879.09;10457027;28;20045;-55
2022/01/09 01:48:07;;;;;;;13.63;2.65;;;;;;;4.58;100.00;98890.09;10438511;28;20057;-59
2022/01/09 01:53:15;;;;;;;11.13;3.00;;;;;;;4.60;100.00;98893.44;10456089;28;20095;-54
2022/01/09 01:58:17;;;;;;;17.45;3.05;;;;;;;4.70;100.00;98917.00;10455506;28;20056;-60
2022/01/09 02:03:20;;;;;;;28.17;4.00;;;;;;;4.86;100.00;98924.63;10456086;28;20056;-56
2022/01/09 02:08:22;;;;;;;34.50;4.57;;;;;;;4.87;100.00;98928.91;10454562;28;20455;-56
2022/01/09 02:13:25;;;;;;;27.50;5.70;;;;;;;4.78;100.00;98935.50;10456860;28;20057;-56
2022/01/09 02:18:27;;;;;;;34.05;5.35;;;;;;;4.93;100.00;98946.69;10463347;28;20499;-56
2022/01/09 02:23:31;;;;;;;39.78;7.78;;;;;;;5.06;100.00;98959.69;10464382;28;20053;-59
2022/01/09 02:28:33;;;;;;;48.00;5.68;;;;;;;5.05;100.00;98969.22;10463259;28;20489;-56
2022/01/09 02:33:35;;;;;;;44.10;6.95;;;;;;;5.01;100.00;98989.34;10463142;28;20045;-57
2022/01/09 02:38:38;;;;;;;44.53;6.82;;;;;;;5.08;100.00;98999.31;10463358;28;20393;-59
2022/01/09 02:43:40;;;;;;;38.50;7.20;;;;;;;5.02;100.00;99013.50;10462954;28;20053;-59
2022/01/09 02:48:44;;;;;;;42.53;7.32;;;;;;;5.16;100.00;99038.56;10461247;28;20130;-58
2022/01/09 02:53:49;;;;;;;42.13;6.95;;;;;;;5.08;100.00;99044.28;10462229;28;20049;-57
2022/01/09 02:58:51;;;;;;;41.83;7.55;;;;;;;5.03;100.00;99054.09;10464539;28;20057;-58
2022/01/09 03:03:53;;;;;;;31.75;5.20;;;;;;;5.02;100.00;99065.41;10461802;28;20049;-57
2022/01/09 03:09:00;;;;;;;29.05;5.55;;;;;;;5.02;100.00;99076.59;10461670;28;20064;-56
2022/01/09 03:14:02;;;;;;;39.40;6.63;;;;;;;5.05;100.00;99085.13;10462148;28;20052;-56
2022/01/09 03:19:05;;;;;;;37.83;5.80;;;;;;;5.05;100.00;99091.16;10459794;28;20052;-55
2022/01/09 03:24:07;;;;;;;34.05;6.10;;;;;;;4.99;100.00;99104.47;10459889;28;20493;-56
2022/01/09 03:29:09;;;;;;;42.33;6.00;;;;;;;4.95;100.00;99111.63;10460813;28;20057;-57
2022/01/09 03:34:12;;;;;;;50.88;6.95;;;;;;;5.06;100.00;99118.75;10461088;28;20060;-56
2022/01/09 03:39:14;;;;;;;46.53;8.55;;;;;;;5.08;100.00;99129.03;10462322;28;20049;-57
2022/01/09 03:44:16;;;;;;;38.03;7.05;;;;;;;5.06;100.00;99151.63;10460270;28;20127;-56
2022/01/09 03:49:19;;;;;;;37.90;7.90;;;;;;;5.06;100.00;99175.84;10460037;28;20061;-57
2022/01/09 03:54:22;;;;;;;34.70;6.82;;;;;;;5.05;100.00;99183.72;10460460;28;20056;-56
2022/01/09 03:59:24;;;;;;;29.45;5.72;;;;;;;5.06;100.00;99180.16;10459825;28;20045;-57
2022/01/09 04:04:26;;;;;;;29.95;5.60;;;;;;;4.97;100.00;99197.94;10459787;28;20057;-56
2022/01/09 04:09:43;;;;;;;37.67;6.43;;;;;;;5.02;100.00;99219.25;10459515;28;20052;-60
2022/01/09 04:14:47;;;;;;;29.92;4.47;;;;;;;4.96;100.00;99236.94;10461314;28;20053;-56
2022/01/09 04:19:49;;;;;;;25.95;5.05;;;;;;;4.94;100.00;99242.25;10459047;28;20052;-58
2022/01/09 04:24:52;;;;;;;29.50;4.78;;;;;;;4.94;100.00;99252.63;10458626;28;20393;-58
2022/01/09 04:29:54;;;;;;;28.38;4.82;;;;;;;4.88;100.00;99262.53;10458688;28;20103;-57
2022/01/09 04:34:56;;;;;;;31.35;5.50;;;;;;;4.91;100.00;99280.47;10457315;28;20053;-55
2022/01/09 04:39:59;;;;;;;36.50;7.30;;;;;;;4.84;100.00;99288.63;10457904;28;20045;-58
2022/01/09 04:45:02;;;;;;;27.73;4.25;;;;;;;4.78;100.00;99294.16;10457810;28;20440;-56
2022/01/09 04:50:04;;;;;;;27.95;4.40;;;;;;;4.79;100.00;99311.41;10458219;28;20071;-57
2022/01/09 04:55:07;;;;;;;27.85;5.40;;;;;;;4.69;100.00;99305.06;10458395;28;20045;-59
2022/01/09 05:00:10;;;;;;;29.35;4.78;;;;;;;4.69;100.00;99341.38;10457244;28;20041;-58
2022/01/09 05:05:13;;;;;;;23.25;4.38;;;;;;;4.64;100.00;99349.41;10457269;28;20057;-57
2022/01/09 05:10:15;;;;;;;27.52;5.28;;;;;;;4.64;100.00;99358.94;10457125;28;20053;-58
2022/01/09 05:15:19;;;;;;;31.40;5.40;;;;;;;4.59;100.00;99368.69;10457086;28;20059;-56
2022/01/09 05:20:21;;;;;;;24.70;3.80;;;;;;;4.58;100.00;99387.78;10457011;28;20059;-55
2022/01/09 05:25:24;;;;;;;27.27;4.22;;;;;;;4.53;100.00;99392.38;10457170;28;20404;-57
2022/01/09 05:30:26;;;;;;;18.73;4.43;;;;;;;4.40;100.00;99411.16;10456583;28;20059;-54
2022/01/09 05:35:28;;;;;;;21.67;3.72;;;;;;;4.45;100.00;99431.66;10456901;28;20052;-59
2022/01/09 05:40:31;;;;;;;28.17;3.53;;;;;;;4.47;100.00;99443.63;10456313;28;20053;-56
2022/01/09 05:45:33;;;;;;;22.75;3.53;;;;;;;4.51;100.00;99457.25;10456125;28;20378;-57
2022/01/09 05:50:36;;;;;;;18.77;4.18;;;;;;;4.41;100.00;99464.69;10458908;28;20052;-59
2022/01/09 05:55:38;;;;;;;25.63;3.85;;;;;;;4.36;100.00;99474.47;10464564;28;20053;-54
2022/01/09 06:00:40;;;;;;;22.27;3.75;;;;;;;4.42;100.00;99475.88;10464544;28;20041;-57
2022/01/09 06:05:43;;;;;;;23.20;3.30;;;;;;;4.32;100.00;99485.06;10464330;28;20432;-55
2022/01/09 06:10:45;;;;;;;19.17;3.25;;;;;;;4.31;100.00;99496.38;10462833;28;20053;-57
2022/01/09 06:15:47;;;;;;;20.73;3.65;;;;;;;4.16;100.00;99503.19;10464297;28;20440;-57
2022/01/09 06:20:50;;;;;;;24.75;3.10;;;;;;;4.13;100.00;99518.88;10463664;28;20049;-52
2022/01/09 06:25:53;;;;;;;21.02;2.78;;;;;;;4.23;100.00;99515.72;10445698;28;20523;-57
2022/01/09 06:30:55;;;;;;;13.73;3.42;;;;;;;4.09;100.00;99516.44;10462090;28;20053;-55
2022/01/09 06:35:57;;;;;;;13.65;2.45;;;;;;;4.17;100.00;99534.19;10463580;28;20049;-56
2022/01/09 06:40:59;;;;;;;17.38;3.92;;;;;;;4.16;100.00;99534.25;10462818;28;20489;-57
2022/01/09 06:46:02;;;;;;;19.98;2.72;;;;;;;4.07;100.00;99548.53;10462351;28;20485;-58
2022/01/09 06:51:04;;;;;;;13.85;2.83;;;;;;;4.08;100.00;99557.94;10462652;28;20421;-55
2022/01/09 06:56:06;;;;;;;11.98;3.15;;;;;;;4.01;100.00;99564.34;10462495;28;20052;-55
2022/01/09 07:01:09;;;;;;;19.42;2.58;;;;;;;3.95;100.00;99573.28;10461633;28;20049;-55
2022/01/09 07:06:11;;;;;;;23.02;4.47;;;;;;;3.94;100.00;99594.91;10462166;28;20127;-58
2022/01/09 07:11:13;;;;;;;17.15;3.70;;;;;;;3.82;100.00;99611.06;10462307;28;20057;-55
2022/01/09 07:16:16;;;;;;;19.58;3.85;;;;;;;3.82;100.00;99619.66;10461447;28;20053;-57
2022/01/09 07:21:18;;;;;;;27.20;3.10;;;;;;;3.75;100.00;99633.81;10461336;28;20045;-58
2022/01/09 07:26:20;;;;;;;13.38;2.65;;;;;;;3.77;100.00;99636.31;10461238;28;20053;-56
2022/01/09 07:31:23;;;;;;;21.85;3.50;;;;;;;3.76;100.00;99648.41;10461717;28;20071;-60
2022/01/09 07:36:25;;;;;;;10.80;3.15;;;;;;;3.66;100.00;99662.69;10460484;28;20045;-57
2022/01/09 07:41:27;;;;;;;15.02;2.30;;;;;;;3.54;100.00;99664.94;10460420;28;20382;-58
2022/01/09 07:46:30;;;;;;;14.88;2.72;;;;;;;3.58;100.00;99667.41;10460211;28;20052;-55
2022/01/09 07:51:32;;;;;;;14.20;2.17;;;;;;;3.60;100.00;99673.34;10460313;28;20052;-57
2022/01/09 07:56:53;;;;;;;9.38;2.75;;;;;;;3.61;100.00;99693.13;10460086;28;20048;-56
2022/01/09 08:01:55;;;;;;;10.65;2.60;;;;;;;3.67;100.00;99691.09;10459627;28;20497;-56
2022/01/09 08:06:58;;;;;;;13.88;2.65;;;;;;;3.52;100.00;99697.00;10458372;28;20045;-55
2022/01/09 08:12:00;;;;;;;16.35;3.35;;;;;;;3.76;100.00;99717.47;10458994;28;20060;-58
2022/01/09 08:17:02;;;;;;;17.83;3.15;;;;;;;3.79;100.00;99709.56;10459023;28;20053;-56
2022/01/09 08:22:06;;;;;;;22.00;4.70;;;;;;;3.67;100.00;99722.16;10458722;28;20072;-54
2022/01/09 08:27:09;;;;;;;13.68;4.03;;;;;;;3.62;100.00;99733.66;10457680;28;20049;-57
2022/01/09 08:32:13;;;;;;;18.45;3.38;;;;;;;3.64;100.00;99748.19;10457378;28;20523;-57
2022/01/09 08:37:16;;;;;;;14.15;3.00;;;;;;;3.58;100.00;99742.47;10457040;28;20123;-57
2022/01/09 08:42:18;;;;;;;15.85;2.60;;;;;;;3.69;100.00;99750.56;10458208;28;20053;-55
2022/01/09 08:47:22;;;;;;;10.75;2.83;;;;;;;3.63;100.00;99756.88;10457811;28;20053;-55
2022/01/09 08:52:24;;;;;;;6.68;2.05;;;;;;;3.62;100.00;99752.59;10458485;28;20061;-55
2022/01/09 08:57:26;;;;;;;12.18;2.72;;;;;;;3.71;100.00;99757.34;10457616;28;20053;-58
2022/01/09 09:02:29;;;;;;;17.45;3.00;;;;;;;3.78;100.00;99770.84;10457409;28;20049;-53
2022/01/09 09:07:31;;;;;;;18.27;2.95;;;;;;;3.97;100.00;99778.66;10457267;28;20049;-58
2022/01/09 09:12:34;;;;;;;12.63;2.63;;;;;;;4.18;100.00;99789.75;10456075;28;20049;-58
2022/01/09 09:17:36;;;;;;;11.38;2.35;;;;;;;4.32;100.00;99798.59;10456571;28;20049;-56
2022/01/09 09:22:39;;;;;;;16.88;3.83;;;;;;;4.01;100.00;99800.88;10456049;28;20060;-56
2022/01/09 09:27:41;;;;;;;20.45;3.58;;;;;;;4.24;100.00;99810.19;10456907;28;20059;-58
2022/01/09 09:32:44;;;;;;;12.38;3.70;;;;;;;4.09;100.00;99818.69;10456691;28;20056;-59
2022/01/09 09:37:46;;;;;;;11.77;2.90;;;;;;;6.50;100.00;99844.53;10454771;28;20045;-58
2022/01/09 09:42:49;;;;;;;13.82;3.58;;;;;;;7.70;87.00;99835.91;10415384;28;20049;-54
2022/01/09 09:47:52;;;;;;;17.60;3.72;;;;;;;6.83;94.29;99846.19;10414396;28;20067;-56
2022/01/09 09:52:55;;;;;;;11.20;3.08;;;;;;;5.94;96.98;99846.69;10414732;28;20045;-57
2022/01/09 09:57:58;;;;;;;14.82;3.08;;;;;;;6.05;98.24;99850.50;10414945;28;20060;-59
2022/01/09 10:03:01;;;;;;;17.67;3.58;;;;;;;5.55;99.41;99858.25;10414471;28;20490;-58
2022/01/09 10:08:07;;;;;;;9.55;2.80;;;;;;;6.04;96.23;99872.22;10416608;28;20053;-59
2022/01/09 10:13:17;;;;;;;18.83;4.38;;;;;;;5.50;100.00;99883.59;10414905;28;20041;-56
2022/01/09 10:18:40;;;;;;;11.32;2.78;;;;;;;5.78;98.03;99866.59;10414637;28;20140;-56
2022/01/09 10:24:06;;;;;;;9.88;2.75;;;;;;;5.33;100.00;99888.78;10414446;28;20049;-58
2022/01/09 10:29:09;;;;;;;14.20;2.88;;;;;;;5.49;100.00;99894.06;10433423;28;20080;-57
2022/01/09 10:34:12;;;;;;;13.50;3.17;;;;;;;5.10;100.00;99895.16;10452536;28;20044;-56
2022/01/09 10:39:17;;;;;;;18.25;3.55;;;;;;;5.11;100.00;99907.19;10461369;28;20045;-57
2022/01/09 10:44:21;;;;;;;13.00;3.00;;;;;;;5.39;100.00;99919.66;10462992;28;20072;-56
2022/01/09 10:49:34;;;;;;;9.90;2.63;;;;;;;5.76;100.00;99908.22;10463335;28;20057;-58
2022/01/09 10:54:37;;;;;;;14.32;3.67;;;;;;;5.77;100.00;99906.50;10449361;28;20481;-58
2022/01/09 10:59:39;;;;;;;11.38;1.90;;;;;;;5.65;98.87;99920.09;10419828;28;20387;-59
2022/01/09 11:04:43;;;;;;;19.05;3.47;;;;;;;5.88;99.65;99914.53;10420110;28;20053;-60
2022/01/09 11:09:48;;;;;;;10.70;2.88;;;;;;;5.68;97.76;99933.78;10419330;28;20414;-57
2022/01/09 11:14:52;;;;;;;11.68;2.10;;;;;;;6.51;95.27;99945.03;10419322;28;20050;-57
2022/01/09 11:19:55;;;;;;;9.93;2.40;;;;;;;5.75;95.78;99944.69;10416995;28;20048;-57
2022/01/09 11:25:10;;;;;;;8.63;2.00;;;;;;;5.71;99.77;99959.56;10437044;28;20065;-58
2022/01/09 11:30:34;;;;;;;11.80;2.97;;;;;;;5.73;99.99;99952.56;10461270;28;20136;-59
2022/01/09 11:36:04;;;;;;;10.68;2.33;;;;;;;5.72;100.00;99968.22;10459845;28;20048;-57
2022/01/09 11:41:23;;;;;;;19.27;3.40;;;;;;;5.54;100.00;99982.97;10460792;28;20044;-56
2022/01/09 11:46:28;;;;;;;9.80;2.63;;;;;;;5.90;100.00;99969.88;10457822;28;20408;-59
2022/01/09 11:51:35;;;;;;;21.35;3.63;;;;;;;5.43;100.00;99978.31;10457580;28;20061;-56
2022/01/09 11:57:03;;;;;;;13.50;2.97;;;;;;;5.93;100.00;99984.47;10459290;28;20045;-58
2022/01/09 12:02:18;;;;;;;14.20;2.83;;;;;;;5.32;100.00;99985.78;10459907;28;20045;-56
2022/01/09 12:07:36;;;;;;;11.57;2.72;;;;;;;5.49;100.00;99988.38;10459450;28;20400;-55
2022/01/09 12:12:38;;;;;;;18.10;2.88;;;;;;;5.72;100.00;99999.38;10459484;28;20052;-57
2022/01/09 12:17:43;;;;;;;17.83;3.10;;;;;;;5.90;100.00;100001.06;10458982;28;20500;-58
2022/01/09 12:22:46;;;;;;;12.10;2.80;;;;;;;5.67;100.00;100004.81;10459484;28;20045;-51
2022/01/09 12:27:54;;;;;;;10.73;2.42;;;;;;;5.88;100.00;100009.84;10458544;28;20048;-56
2022/01/09 12:32:56;;;;;;;9.77;3.83;;;;;;;6.10;100.00;100009.63;10459153;28;20048;-57
2022/01/09 12:38:00;;;;;;;11.30;2.67;;;;;;;6.39;99.46;100018.53;10458304;28;20049;-58
2022/01/09 12:43:04;;;;;;;18.83;4.57;;;;;;;6.08;98.11;100020.09;10456867;28;20053;-56
2022/01/09 12:48:08;;;;;;;10.13;3.03;;;;;;;6.15;100.00;100020.63;10458400;28;20053;-55
2022/01/09 12:53:16;;;;;;;11.57;3.20;;;;;;;6.14;98.78;100018.94;10457929;28;20060;-55
2022/01/09 12:58:32;;;;;;;19.20;4.28;;;;;;;6.22;100.00;100028.94;10457443;28;20071;-57
2022/01/09 13:03:34;;;;;;;13.38;3.10;;;;;;;6.16;99.46;100029.28;10458107;28;20045;-55
2022/01/09 13:08:43;;;;;;;18.02;3.42;;;;;;;5.84;99.83;100042.94;10457826;28;20052;-58
2022/01/09 13:13:50;;;;;;;18.95;3.38;;;;;;;5.77;100.00;100051.94;10457287;28;20041;-55
2022/01/09 13:18:57;;;;;;;13.75;3.13;;;;;;;5.66;99.25;100043.84;10456984;28;20059;-53
2022/01/09 13:24:09;;;;;;;10.77;2.83;;;;;;;5.81;100.00;100053.47;10456976;28;20048;-55
2022/01/09 13:29:20;;;;;;;15.10;4.10;;;;;;;5.76;100.00;100061.47;10456710;28;20520;-57
2022/01/09 13:34:33;;;;;;;8.47;2.43;;;;;;;5.87;99.32;100068.75;10456668;28;20084;-56
2022/01/09 13:39:38;;;;;;;11.18;2.85;;;;;;;5.64;98.59;100074.25;10456959;28;20079;-53
2022/01/09 13:44:42;;;;;;;12.55;2.70;;;;;;;5.64;97.88;100080.28;10456191;28;20049;-56
2022/01/09 13:49:51;;;;;;;14.32;2.70;;;;;;;5.67;100.00;100085.31;10456440;28;20052;-53
2022/01/09 13:54:58;;;;;;;11.95;2.78;;;;;;;5.85;98.23;100100.91;10456119;28;20405;-56
2022/01/09 14:00:02;;;;;;;15.77;3.72;;;;;;;6.16;94.82;100107.25;10455889;28;20444;-57
2022/01/09 14:05:10;;;;;;;19.83;4.07;;;;;;;5.71;98.10;100112.81;10455989;28;20512;-56
2022/01/09 14:10:13;;;;;;;16.98;3.42;;;;;;;5.65;100.00;100120.06;10456184;28;20061;-57
2022/01/09 14:15:20;;;;;;;22.38;4.30;;;;;;;5.62;100.00;100115.88;10464103;28;20049;-56
2022/01/09 14:20:25;;;;;;;13.98;3.53;;;;;;;5.47;100.00;100116.59;10463552;28;20064;-58
2022/01/09 14:25:46;;;;;;;18.92;3.28;;;;;;;5.35;100.00;100131.00;10463648;28;20469;-55
2022/01/09 14:30:49;;;;;;;13.20;3.92;;;;;;;5.16;100.00;100128.38;10463494;28;20052;-56
2022/01/09 14:35:54;;;;;;;22.38;4.28;;;;;;;5.01;100.00;100140.31;10463748;28;20052;-57
2022/01/09 14:40:59;;;;;;;15.13;3.03;;;;;;;5.17;100.00;100141.28;10461812;28;20056;-56
2022/01/09 14:46:02;;;;;;;20.27;3.75;;;;;;;5.26;100.00;100146.97;10462927;28;20063;-56
2022/01/09 14:51:13;;;;;;;12.30;3.10;;;;;;;5.18;100.00;100149.94;10462809;28;20056;-54
2022/01/09 14:56:15;;;;;;;16.67;4.18;;;;;;;5.09;100.00;100155.53;10462619;28;20052;-57
2022/01/09 15:01:21;;;;;;;24.02;3.88;;;;;;;4.92;100.00;100169.25;10462087;28;20053;-56
2022/01/09 15:06:23;;;;;;;16.52;2.75;;;;;;;4.88;100.00;100181.50;10462155;28;20114;-56
2022/01/09 15:11:26;;;;;;;19.73;3.58;;;;;;;4.78;100.00;100191.44;10444642;28;20060;-54
2022/01/09 15:16:28;;;;;;;14.00;2.92;;;;;;;4.58;100.00;100197.47;10461723;28;20410;-54
2022/01/09 15:21:31;;;;;;;25.65;5.03;;;;;;;4.45;100.00;100206.66;10461464;28;20049;-56
2022/01/09 15:26:33;;;;;;;19.85;3.85;;;;;;;4.45;100.00;100224.81;10461511;28;20057;-57
2022/01/09 15:31:35;;;;;;;13.73;3.58;;;;;;;4.50;100.00;100232.41;10461854;28;20053;-56
2022/01/09 15:36:38;;;;;;;20.50;4.18;;;;;;;4.27;100.00;100234.19;10460998;28;20060;-58
2022/01/09 15:41:40;;;;;;;22.42;3.30;;;;;;;4.39;100.00;100254.44;10460627;28;20387;-57
2022/01/09 15:46:42;;;;;;;19.90;3.75;;;;;;;4.34;100.00;100253.78;10460101;28;20500;-56
2022/01/09 15:51:45;;;;;;;19.63;3.80;;;;;;;4.18;100.00;100253.53;10460453;28;20052;-57
2022/01/09 15:56:47;;;;;;;15.18;3.20;;;;;;;4.13;100.00;100254.63;10459039;28;20053;-56
2022/01/09 16:01:49;;;;;;;30.95;10.93;;;;;;;4.11;100.00;100267.63;10459900;28;20048;-55
2022/01/09 16:06:52;;;;;;;16.73;4.07;;;;;;;4.11;100.00;100277.16;10459912;28;20059;-55
2022/01/09 16:11:57;;;;;;;20.40;4.22;;;;;;;3.99;100.00;100278.47;10459652;28;20059;-56
2022/01/09 16:17:00;;;;;;;21.02;3.50;;;;;;;3.99;100.00;100279.31;10459410;28;20041;-55
2022/01/09 16:22:03;;;;;;;21.88;5.13;;;;;;;3.87;100.00;100295.34;10459146;28;20052;-54
2022/01/09 16:27:06;;;;;;;14.15;3.58;;;;;;;3.99;100.00;100297.44;10459048;28;20060;-52
2022/01/09 16:32:08;;;;;;;21.35;5.32;;;;;;;3.65;100.00;100300.47;10458540;28;20485;-54
2022/01/09 16:37:10;;;;;;;16.08;4.10;;;;;;;3.47;100.00;100313.16;10456711;28;20049;-56
2022/01/09 16:42:13;;;;;;;22.80;4.57;;;;;;;3.43;100.00;100316.75;10458000;28;20493;-50
2022/01/09 16:47:15;;;;;;;10.43;2.95;;;;;;;3.29;100.00;100321.56;10458128;28;20057;-56
2022/01/09 16:52:17;;;;;;;8.55;4.00;;;;;;;3.32;100.00;100329.22;10456853;28;20061;-57
2022/01/09 16:57:20;;;;;;;20.50;4.78;;;;;;;3.30;100.00;100337.03;10457090;28;20045;-53
2022/01/09 17:02:23;;;;;;;10.27;3.00;;;;;;;3.37;100.00;100348.03;10457466;28;20440;-57
2022/01/09 17:07:26;;;;;;;18.95;3.60;;;;;;;3.16;100.00;100357.34;10457341;28;20053;-56
2022/01/09 17:12:28;;;;;;;22.73;5.13;;;;;;;3.02;100.00;100364.75;10457210;28;20512;-55
2022/01/09 17:17:31;;;;;;;12.45;3.90;;;;;;;2.86;100.00;100374.72;10457179;28;20052;-57
2022/01/09 17:22:33;;;;;;;12.25;3.00;;;;;;;3.07;100.00;100388.72;10456690;28;20501;-56
2022/01/09 17:27:36;;;;;;;15.32;4.03;;;;;;;3.06;100.00;100387.88;10456762;28;20489;-54
2022/01/09 17:32:38;;;;;;;17.27;3.92;;;;;;;2.88;100.00;100402.25;10455450;28;20057;-55
2022/01/09 17:37:41;;;;;;;19.83;4.22;;;;;;;2.93;100.00;100405.53;10456711;28;20106;-56
2022/01/09 17:42:43;;;;;;;25.65;4.00;;;;;;;2.86;100.00;100406.63;10456106;28;20051;-58
2022/01/09 17:47:46;;;;;;;22.10;3.75;;;;;;;2.85;100.00;100412.66;10466081;28;20499;-57
2022/01/09 17:52:48;;;;;;;21.45;4.20;;;;;;;2.85;100.00;100422.19;10470072;28;20053;-56
2022/01/09 17:57:51;;;;;;;15.30;5.45;;;;;;;2.80;100.00;100424.91;10470932;28;20053;-55
2022/01/09 18:02:54;;;;;;;20.70;4.43;;;;;;;2.75;100.00;100440.53;10469850;28;20059;-56
2022/01/09 18:07:56;;;;;;;17.88;3.47;;;;;;;2.69;100.00;100456.25;10470437;28;20128;-56
2022/01/09 18:12:59;;;;;;;19.80;4.25;;;;;;;2.67;100.00;100452.03;10469652;28;20489;-57
2022/01/09 18:18:01;;;;;;;20.30;4.03;;;;;;;2.19;100.00;100462.00;10469448;28;20504;-57
2022/01/09 18:23:04;;;;;;;19.48;3.97;;;;;;;2.72;100.00;100469.09;10469838;28;20057;-54
2022/01/09 18:28:09;;;;;;;17.98;5.70;;;;;;;2.66;100.00;100482.19;10469616;28;20049;-57
2022/01/09 18:33:12;;;;;;;19.08;4.78;;;;;;;2.56;100.00;100496.28;10469663;28;20049;-55
2022/01/09 18:38:14;;;;;;;19.05;4.07;;;;;;;2.51;100.00;100505.91;10469196;28;20401;-57
2022/01/09 18:43:16;;;;;;;18.52;5.32;;;;;;;2.63;100.00;100509.88;10468911;28;20404;-56
2022/01/09 18:48:19;;;;;;;16.52;4.22;;;;;;;2.40;100.00;100525.16;10469203;28;20060;-53
2022/01/09 18:53:22;;;;;;;15.13;4.32;;;;;;;2.56;100.00;100522.97;10468854;28;20059;-56
2022/01/09 18:58:24;;;;;;;17.90;4.75;;;;;;;2.45;100.00;100525.00;10464540;28;20492;-56
2022/01/09 19:03:27;;;;;;;16.80;4.97;;;;;;;2.35;100.00;100539.91;10462169;28;20056;-56
2022/01/09 19:08:29;;;;;;;35.28;9.98;;;;;;;2.19;100.00;100549.00;10462007;28;20129;-56
2022/01/09 19:13:32;;;;;;;17.83;6.25;;;;;;;2.38;100.00;100557.09;10462022;28;20048;-54
2022/01/09 19:18:37;;;;;;;21.80;4.93;;;;;;;2.33;100.00;100561.53;10444219;28;20049;-56
2022/01/09 19:23:39;;;;;;;19.73;4.95;;;;;;;2.30;100.00;100577.94;10461892;28;20144;-58
2022/01/09 19:28:43;;;;;;;15.50;5.30;;;;;;;2.21;100.00;100584.22;10461265;28;20056;-53
2022/01/09 19:33:45;;;;;;;19.17;4.78;;;;;;;2.35;100.00;100609.69;10459749;28;20053;-58
2022/01/09 19:38:48;;;;;;;31.58;8.48;;;;;;;2.12;100.00;100615.47;10460961;28;20049;-54
2022/01/09 19:43:50;;;;;;;27.58;6.18;;;;;;;2.33;100.00;100611.47;10460722;28;20049;-57
2022/01/09 19:48:52;;;;;;;27.92;10.32;;;;;;;2.30;100.00;100628.78;10460346;28;20052;-56
2022/01/09 19:53:56;;;;;;;17.05;5.75;;;;;;;2.44;100.00;100629.28;10460183;28;20064;-56
2022/01/09 19:58:58;;;;;;;24.15;6.32;;;;;;;2.30;100.00;100641.69;10460409;28;20068;-57
2022/01/09 20:04:01;;;;;;;30.63;6.78;;;;;;;2.16;100.00;100647.22;10460006;28;20057;-56
2022/01/09 20:09:04;;;;;;;18.52;6.78;;;;;;;2.03;100.00;100657.88;10458397;28;20049;-55
2022/01/09 20:14:06;;;;;;;30.35;10.27;;;;;;;1.86;100.00;100662.56;10459577;28;20052;-55
2022/01/09 20:19:08;;;;;;;26.17;8.05;;;;;;;1.98;100.00;100671.75;10459056;28;20413;-55
2022/01/09 20:24:11;;;;;;;26.23;7.88;;;;;;;2.03;100.00;100672.50;10459380;28;20045;-53
2022/01/09 20:29:14;;;;;;;30.95;8.90;;;;;;;2.01;100.00;100671.69;10458545;28;20045;-55
2022/01/09 20:34:17;;;;;;;35.83;8.70;;;;;;;1.81;100.00;100678.16;10459123;28;20053;-54
2022/01/09 20:39:21;;;;;;;30.05;8.75;;;;;;;1.96;100.00;100694.19;10461032;28;20056;-57
2022/01/09 20:44:24;;;;;;;22.05;7.35;;;;;;;1.64;100.00;100691.44;10458243;28;20492;-53
2022/01/09 20:49:26;;;;;;;28.58;7.82;;;;;;;1.83;100.00;100699.66;10457700;28;20060;-52
2022/01/09 20:54:29;;;;;;;40.80;10.70;;;;;;;1.80;100.00;100706.56;10457095;28;20049;-58
2022/01/09 20:59:32;;;;;;;34.78;10.50;;;;;;;1.71;100.00;100709.38;10457999;28;20054;-55
2022/01/09 21:04:34;;;;;;;21.73;7.35;;;;;;;1.85;100.00;100720.25;10457537;28;20493;-56
2022/01/09 21:09:36;;;;;;;26.77;8.30;;;;;;;1.70;100.00;100742.09;10457349;28;20053;-56
2022/01/09 21:14:39;;;;;;;20.40;6.63;;;;;;;1.83;100.00;100738.38;10458437;28;20481;-56
2022/01/09 21:19:41;;;;;;;22.83;7.18;;;;;;;1.70;100.00;100746.38;10459502;28;20054;-55
2022/01/09 21:24:45;;;;;;;20.70;8.07;;;;;;;1.76;100.00;100769.50;10456998;28;20059;-55
2022/01/09 21:29:47;;;;;;;23.75;7.80;;;;;;;1.77;100.00;100771.22;10456634;28;20401;-54
2022/01/09 21:34:49;;;;;;;17.50;7.78;;;;;;;1.68;100.00;100774.81;10456618;28;20411;-57
2022/01/09 21:40:02;;;;;;;27.92;7.25;;;;;;;1.91;100.00;100784.66;10456609;28;20048;-53
2022/01/09 21:45:05;;;;;;;26.10;7.90;;;;;;;1.58;100.00;100797.41;10455420;28;20056;-57
2022/01/09 21:50:08;;;;;;;20.75;6.72;;;;;;;1.97;100.00;100804.34;10456469;28;20061;-58
2022/01/09 21:55:10;;;;;;;20.65;6.93;;;;;;;1.76;100.00;100813.38;10458081;28;20064;-51
2022/01/09 22:00:13;;;;;;;27.02;9.63;;;;;;;1.60;100.00;100823.19;10456148;28;20060;-55
2022/01/09 22:05:15;;;;;;;25.30;8.60;;;;;;;1.74;100.00;100823.75;10454592;28;20053;-56
2022/01/09 22:10:18;;;;;;;37.65;9.70;;;;;;;1.53;100.00;100827.63;10456206;28;20057;-56
2022/01/09 22:15:20;;;;;;;31.45;10.18;;;;;;;1.53;100.00;100848.25;10454735;28;20049;-54
2022/01/09 22:20:23;;;;;;;22.33;8.50;;;;;;;1.61;100.00;100851.50;10455543;28;20517;-56
2022/01/09 22:25:26;;;;;;;27.98;10.02;;;;;;;1.86;100.00;100864.78;10455647;28;20500;-55
2022/01/09 22:30:28;;;;;;;20.83;7.95;;;;;;;2.11;100.00;100864.28;10454794;28;20048;-56
2022/01/09 22:35:31;;;;;;;28.27;10.35;;;;;;;1.56;100.00;100867.97;10464269;28;20072;-58
2022/01/09 22:40:33;;;;;;;28.20;12.13;;;;;;;1.58;100.00;100879.13;10462540;28;20045;-58
2022/01/09 22:45:37;;;;;;;26.08;11.95;;;;;;;1.65;100.00;100891.88;10463425;28;20045;-57
2022/01/09 22:50:41;;;;;;;35.22;11.88;;;;;;;1.64;100.00;100891.91;10462502;28;20391;-55
2022/01/09 22:55:43;;;;;;;20.00;11.73;;;;;;;1.59;100.00;100909.22;10463302;28;20123;-55
2022/01/09 23:00:48;;;;;;;24.92;11.25;;;;;;;1.67;100.00;100904.78;10462361;28;20485;-56
2022/01/09 23:05:50;;;;;;;28.17;11.93;;;;;;;1.58;100.00;100918.69;10462732;28;20048;-50
2022/01/09 23:10:55;;;;;;;22.80;13.00;;;;;;;1.75;100.00;100915.81;10464230;28;20063;-56